Time;durP1;ratioP1;P1;durP2;ratioP2;P2;SDS_P1;SDS_P2;PMS_P1;PMS_P2;Temp;Humidity;BMP_temperature;BMP_pressure;BME280_temperature;BME280_humidity;BME280_pressure;Samples;Min_cycle;Max_cycle;Signal;HPM_P1;HPM_P2
2022/11/27 00:01:11;;;;;;;21.37;7.53;;;;;;;;;;4976289;28;20179;-80
2022/11/27 00:03:37;;;;;;;15.27;7.63;;;;;;;;;;4976281;28;20194;-80
2022/11/27 00:06:03;;;;;;;23.03;7.70;;;;;;;;;;4976365;28;20178;-81
2022/11/27 00:08:29;;;;;;;17.53;7.67;;;;;;;;;;4976405;28;20182;-81
2022/11/27 00:10:55;;;;;;;21.30;8.50;;;;;;;;;;4976200;28;20186;-81
2022/11/27 00:13:21;;;;;;;17.30;8.07;;;;;;;;;;4957957;28;20206;-88
2022/11/27 00:15:47;;;;;;;17.33;8.03;;;;;;;;;;4990891;28;20186;-88
2022/11/27 00:18:13;;;;;;;17.77;8.03;;;;;;;;;;4975842;28;20277;-88
2022/11/27 00:20:39;;;;;;;19.87;8.00;;;;;;;;;;4977390;28;20174;-87
2022/11/27 00:23:05;;;;;;;15.93;7.83;;;;;;;;;;4976442;28;20183;-88
2022/11/27 00:25:32;;;;;;;19.30;8.47;;;;;;;;;;4975850;28;20179;-88
2022/11/27 00:27:58;;;;;;;17.50;7.87;;;;;;;;;;4959935;28;20182;-82
2022/11/27 00:30:23;;;;;;;21.03;8.63;;;;;;;;;;4959971;28;20194;-81
2022/11/27 00:32:49;;;;;;;22.80;9.67;;;;;;;;;;4960199;28;20301;-82
2022/11/27 00:35:16;;;;;;;20.70;9.57;;;;;;;;;;4959700;28;20183;-82
2022/11/27 00:37:41;;;;;;;16.90;9.30;;;;;;;;;;4959631;28;20278;-82
2022/11/27 00:40:08;;;;;;;22.03;9.47;;;;;;;;;;4959444;28;20206;-82
2022/11/27 00:42:34;;;;;;;21.07;9.83;;;;;;;;;;4960051;28;20222;-82
2022/11/27 00:45:00;;;;;;;18.10;10.07;;;;;;;;;;4959843;28;20203;-83
2022/11/27 00:47:26;;;;;;;17.40;9.83;;;;;;;;;;4959697;28;20221;-82
2022/11/27 00:49:52;;;;;;;19.50;10.17;;;;;;;;;;4976379;28;20182;-82
2022/11/27 00:52:18;;;;;;;25.20;9.77;;;;;;;;;;4975473;28;20191;-82
2022/11/27 00:54:44;;;;;;;21.93;11.03;;;;;;;;;;4955956;28;20215;-82
2022/11/27 00:57:10;;;;;;;23.90;12.10;;;;;;;;;;4970764;28;20191;-82
2022/11/27 00:59:36;;;;;;;23.97;12.00;;;;;;;;;;4958822;28;20186;-81
2022/11/27 01:02:02;;;;;;;20.43;11.80;;;;;;;;;;4990628;28;20187;-80
2022/11/27 01:04:29;;;;;;;23.57;11.63;;;;;;;;;;4975389;28;20213;-80
2022/11/27 01:06:55;;;;;;;18.30;11.43;;;;;;;;;;4975355;28;20187;-80
2022/11/27 01:09:21;;;;;;;19.90;10.67;;;;;;;;;;4991129;28;20190;-80
2022/11/27 01:11:47;;;;;;;22.50;10.43;;;;;;;;;;4958444;28;20198;-80
2022/11/27 01:14:16;;;;;;;22.80;10.67;;;;;;;;;;4974481;28;20214;-81
2022/11/27 01:16:42;;;;;;;19.13;10.63;;;;;;;;;;4975379;28;20268;-82
2022/11/27 01:19:09;;;;;;;19.43;10.70;;;;;;;;;;4969183;28;20312;-88
2022/11/27 01:21:35;;;;;;;17.83;10.90;;;;;;;;;;4991137;28;20207;-89
2022/11/27 01:24:04;;;;;;;19.50;10.73;;;;;;;;;;4987796;28;20191;-88
2022/11/27 01:26:30;;;;;;;21.73;11.80;;;;;;;;;;4975095;28;20183;-88
2022/11/27 01:28:59;;;;;;;20.13;12.43;;;;;;;;;;4979426;28;20248;-88
2022/11/27 01:31:27;;;;;;;24.13;12.60;;;;;;;;;;4993339;28;20186;-88
2022/11/27 01:33:57;;;;;;;20.33;12.80;;;;;;;;;;4982411;28;20215;-88
2022/11/27 01:36:23;;;;;;;23.47;14.13;;;;;;;;;;4990682;28;20187;-81
2022/11/27 01:38:49;;;;;;;23.90;13.70;;;;;;;;;;4975866;28;20183;-82
2022/11/27 01:41:21;;;;;;;20.87;13.63;;;;;;;;;;4990632;28;20206;-81
2022/11/27 01:43:49;;;;;;;23.13;14.00;;;;;;;;;;4977395;28;20314;-82
2022/11/27 01:46:30;;;;;;;19.63;13.20;;;;;;;;;;4988609;28;20201;-80
2022/11/27 01:49:08;;;;;;;22.70;13.40;;;;;;;;;;4974530;28;20215;-81
2022/11/27 01:51:36;;;;;;;24.60;13.23;;;;;;;;;;4977935;28;20186;-81
2022/11/27 01:54:02;;;;;;;25.90;13.10;;;;;;;;;;4973474;28;20210;-81
2022/11/27 01:56:29;;;;;;;22.93;13.20;;;;;;;;;;4974693;28;20186;-82
2022/11/27 01:58:55;;;;;;;23.10;12.60;;;;;;;;;;4974331;28;20186;-82
2022/11/27 02:01:23;;;;;;;19.23;11.60;;;;;;;;;;4990034;23;20183;-78
2022/11/27 02:03:49;;;;;;;18.47;11.53;;;;;;;;;;5019442;28;20211;-78
2022/11/27 02:06:15;;;;;;;20.70;11.77;;;;;;;;;;4996881;28;20192;-78
2022/11/27 02:08:41;;;;;;;19.73;10.73;;;;;;;;;;4993293;28;20181;-79
2022/11/27 02:11:12;;;;;;;18.77;10.70;;;;;;;;;;5027487;28;20193;-79
2022/11/27 02:13:40;;;;;;;19.60;9.27;;;;;;;;;;5014941;28;20280;-79
2022/11/27 02:16:25;;;;;;;18.70;9.63;;;;;;;;;;5015053;28;20215;-79
2022/11/27 02:18:59;;;;;;;17.67;9.50;;;;;;;;;;5011210;28;20188;-79
2022/11/27 02:21:28;;;;;;;19.23;9.40;;;;;;;;;;5031938;28;20175;-79
2022/11/27 02:24:13;;;;;;;18.90;9.90;;;;;;;;;;5032254;28;20266;-79
2022/11/27 02:26:48;;;;;;;19.17;9.20;;;;;;;;;;5029479;28;20208;-79
2022/11/27 02:29:18;;;;;;;16.60;8.80;;;;;;;;;;5016282;28;20187;-79
2022/11/27 02:32:03;;;;;;;20.43;8.57;;;;;;;;;;5016112;28;20335;-79
2022/11/27 02:34:38;;;;;;;16.60;8.67;;;;;;;;;;5015589;28;20208;-79
2022/11/27 02:37:11;;;;;;;17.40;8.50;;;;;;;;;;5015482;28;20184;-79
2022/11/27 02:39:42;;;;;;;20.63;8.77;;;;;;;;;;5015726;28;20334;-79
2022/11/27 02:42:13;;;;;;;15.87;8.40;;;;;;;;;;5007868;28;20241;-79
2022/11/27 02:44:42;;;;;;;18.60;8.17;;;;;;;;;;5019470;28;20203;-79
2022/11/27 02:47:09;;;;;;;16.77;8.07;;;;;;;;;;5020484;28;20172;-79
2022/11/27 02:49:36;;;;;;;18.33;7.87;;;;;;;;;;5019920;28;20184;-79
2022/11/27 02:52:03;;;;;;;18.53;7.70;;;;;;;;;;5020155;28;20192;-79
2022/11/27 02:54:30;;;;;;;18.10;7.90;;;;;;;;;;5003625;28;20223;-79
2022/11/27 02:56:58;;;;;;;16.77;8.00;;;;;;;;;;5019846;28;20196;-80
2022/11/27 02:59:25;;;;;;;18.87;8.00;;;;;;;;;;5019796;28;20187;-79
2022/11/27 03:01:55;;;;;;;16.77;7.90;;;;;;;;;;5037141;28;20247;-79
2022/11/27 03:04:24;;;;;;;17.97;7.63;;;;;;;;;;5019712;28;20223;-79
2022/11/27 03:06:53;;;;;;;18.27;7.40;;;;;;;;;;5019471;28;20181;-79
2022/11/27 03:09:22;;;;;;;13.90;7.03;;;;;;;;;;5019828;28;20184;-79
2022/11/27 03:11:48;;;;;;;16.13;7.43;;;;;;;;;;5019283;28;20271;-79
2022/11/27 03:14:15;;;;;;;12.90;6.80;;;;;;;;;;5019280;28;20282;-79
2022/11/27 03:17:02;;;;;;;15.77;6.77;;;;;;;;;;5019176;28;20232;-79
2022/11/27 03:19:31;;;;;;;14.70;7.10;;;;;;;;;;5015494;28;20185;-79
2022/11/27 03:22:01;;;;;;;13.37;6.83;;;;;;;;;;5039992;28;20189;-79
2022/11/27 03:24:28;;;;;;;13.23;7.00;;;;;;;;;;5017995;28;20192;-79
2022/11/27 03:26:55;;;;;;;19.10;6.87;;;;;;;;;;5036593;28;20242;-79
2022/11/27 03:29:24;;;;;;;11.90;6.53;;;;;;;;;;5020010;28;20193;-79
2022/11/27 03:31:51;;;;;;;16.13;6.70;;;;;;;;;;5007335;28;20188;-79
2022/11/27 03:34:17;;;;;;;16.03;7.07;;;;;;;;;;4997544;28;20223;-79
2022/11/27 03:36:44;;;;;;;12.43;6.70;;;;;;;;;;5017734;28;20187;-79
2022/11/27 03:39:10;;;;;;;15.70;7.03;;;;;;;;;;5018537;28;20184;-79
2022/11/27 03:41:55;;;;;;;18.23;6.83;;;;;;;;;;5001081;28;20191;-79
2022/11/27 03:44:30;;;;;;;15.27;7.00;;;;;;;;;;5021483;28;20195;-79
2022/11/27 03:47:06;;;;;;;18.73;7.70;;;;;;;;;;5036523;28;20226;-79
2022/11/27 03:49:35;;;;;;;16.37;6.83;;;;;;;;;;5035592;28;20237;-80
2022/11/27 03:52:01;;;;;;;17.40;7.43;;;;;;;;;;5014459;28;20192;-81
2022/11/27 03:54:49;;;;;;;18.83;7.27;;;;;;;;;;5016872;28;20208;-80
2022/11/27 03:57:21;;;;;;;20.77;7.67;;;;;;;;;;5018244;28;20181;-81
2022/11/27 03:59:50;;;;;;;18.70;7.33;;;;;;;;;;5017655;28;20191;-80
2022/11/27 04:02:25;;;;;;;16.40;7.30;;;;;;;;;;5009001;28;20228;-80
2022/11/27 04:04:51;;;;;;;13.80;7.53;;;;;;;;;;4994776;28;20188;-79
2022/11/27 04:07:17;;;;;;;16.13;7.33;;;;;;;;;;4961724;28;20187;-79
2022/11/27 04:09:43;;;;;;;13.37;8.00;;;;;;;;;;5010839;28;20194;-79
2022/11/27 04:12:09;;;;;;;15.33;7.60;;;;;;;;;;4994181;28;20193;-79
2022/11/27 04:14:35;;;;;;;15.43;7.70;;;;;;;;;;4994526;28;20226;-79
2022/11/27 04:17:01;;;;;;;14.87;7.50;;;;;;;;;;4989933;28;20194;-79
2022/11/27 04:19:27;;;;;;;21.37;7.97;;;;;;;;;;4995187;28;20194;-79
2022/11/27 04:21:53;;;;;;;16.60;7.10;;;;;;;;;;4978021;28;20209;-79
2022/11/27 04:24:19;;;;;;;14.23;7.67;;;;;;;;;;4994618;28;20190;-79
2022/11/27 04:26:45;;;;;;;14.00;6.70;;;;;;;;;;4974774;28;20182;-79
2022/11/27 04:29:11;;;;;;;14.93;6.63;;;;;;;;;;4994699;28;20225;-79
2022/11/27 04:31:37;;;;;;;13.30;7.10;;;;;;;;;;4993987;28;20533;-79
2022/11/27 04:34:03;;;;;;;12.13;6.03;;;;;;;;;;4996427;28;20232;-79
2022/11/27 04:36:29;;;;;;;13.63;6.77;;;;;;;;;;4979064;28;20223;-79
2022/11/27 04:38:54;;;;;;;15.03;6.47;;;;;;;;;;4994634;28;20174;-79
2022/11/27 04:41:20;;;;;;;13.63;6.67;;;;;;;;;;4978311;28;20281;-80
2022/11/27 04:43:46;;;;;;;13.27;6.30;;;;;;;;;;4994146;28;20313;-80
2022/11/27 04:46:12;;;;;;;13.37;6.57;;;;;;;;;;4978574;28;20210;-80
2022/11/27 04:48:38;;;;;;;14.87;6.40;;;;;;;;;;4995553;28;20224;-80
2022/11/27 04:51:04;;;;;;;14.53;6.50;;;;;;;;;;4968613;28;20202;-80
2022/11/27 04:53:30;;;;;;;11.53;6.17;;;;;;;;;;4994105;28;20252;-81
2022/11/27 04:55:56;;;;;;;13.03;6.20;;;;;;;;;;4993811;28;20241;-80
2022/11/27 04:58:22;;;;;;;12.77;6.00;;;;;;;;;;4993869;28;20190;-81
2022/11/27 05:00:48;;;;;;;13.90;6.33;;;;;;;;;;4993588;28;20189;-81
2022/11/27 05:03:14;;;;;;;14.47;6.33;;;;;;;;;;4994457;28;20236;-81
2022/11/27 05:05:40;;;;;;;12.97;6.77;;;;;;;;;;5016783;28;20197;-81
2022/11/27 05:08:06;;;;;;;14.27;6.90;;;;;;;;;;5000407;28;20218;-80
2022/11/27 05:10:32;;;;;;;16.80;7.17;;;;;;;;;;4984299;28;20197;-81
2022/11/27 05:12:58;;;;;;;11.33;6.10;;;;;;;;;;5015876;28;20212;-80
2022/11/27 05:15:24;;;;;;;11.33;6.57;;;;;;;;;;5016399;28;20185;-80
2022/11/27 05:17:50;;;;;;;13.73;7.07;;;;;;;;;;5017076;28;20185;-80
2022/11/27 05:20:16;;;;;;;13.93;7.20;;;;;;;;;;5016594;28;20193;-79
2022/11/27 05:22:43;;;;;;;12.87;7.67;;;;;;;;;;5013082;28;20193;-79
2022/11/27 05:25:09;;;;;;;16.53;7.63;;;;;;;;;;5013806;28;20188;-79
2022/11/27 05:27:35;;;;;;;14.37;8.07;;;;;;;;;;5016292;28;20196;-79
2022/11/27 05:30:01;;;;;;;15.80;7.53;;;;;;;;;;5000003;28;20192;-79
2022/11/27 05:32:27;;;;;;;15.63;7.83;;;;;;;;;;5016088;28;20196;-79
2022/11/27 05:34:53;;;;;;;17.33;8.30;;;;;;;;;;5015735;28;20241;-79
2022/11/27 05:37:19;;;;;;;14.47;7.53;;;;;;;;;;5020505;28;20196;-79
2022/11/27 05:39:45;;;;;;;15.53;7.93;;;;;;;;;;5015139;28;20184;-79
2022/11/27 05:42:11;;;;;;;12.33;7.83;;;;;;;;;;5000320;28;20212;-79
2022/11/27 05:44:37;;;;;;;16.80;7.63;;;;;;;;;;5024580;28;20246;-79
2022/11/27 05:47:03;;;;;;;13.63;7.43;;;;;;;;;;5016115;28;20184;-79
2022/11/27 05:49:29;;;;;;;12.80;7.30;;;;;;;;;;5032282;28;20203;-79
2022/11/27 05:51:55;;;;;;;17.00;7.10;;;;;;;;;;4999256;28;20185;-79
2022/11/27 05:54:21;;;;;;;16.80;7.00;;;;;;;;;;4999056;28;20236;-79
2022/11/27 05:56:47;;;;;;;16.20;7.60;;;;;;;;;;5032639;28;20181;-80
2022/11/27 05:59:13;;;;;;;12.87;7.13;;;;;;;;;;5015561;28;20189;-80
2022/11/27 06:01:39;;;;;;;15.83;7.07;;;;;;;;;;5020785;28;20184;-79
2022/11/27 06:04:05;;;;;;;17.43;7.43;;;;;;;;;;5033073;28;20227;-79
2022/11/27 06:06:31;;;;;;;13.70;7.40;;;;;;;;;;5015706;28;20189;-79
2022/11/27 06:08:57;;;;;;;14.07;7.63;;;;;;;;;;5016260;28;20200;-79
2022/11/27 06:11:24;;;;;;;15.13;7.80;;;;;;;;;;5001045;28;20220;-79
2022/11/27 06:13:50;;;;;;;13.67;7.27;;;;;;;;;;5032738;28;20248;-79
2022/11/27 06:16:20;;;;;;;15.47;7.30;;;;;;;;;;5033718;28;20181;-79
2022/11/27 06:18:50;;;;;;;13.40;7.50;;;;;;;;;;5011406;28;20185;-80
2022/11/27 06:21:17;;;;;;;16.23;8.40;;;;;;;;;;5033960;28;20219;-79
2022/11/27 06:23:43;;;;;;;14.30;7.97;;;;;;;;;;5016041;28;20212;-79
2022/11/27 06:26:10;;;;;;;13.10;8.17;;;;;;;;;;5015707;28;20271;-79
2022/11/27 06:28:36;;;;;;;15.17;7.47;;;;;;;;;;4998964;28;20242;-79
2022/11/27 06:31:10;;;;;;;15.07;7.90;;;;;;;;;;5016406;28;20185;-79
2022/11/27 06:33:36;;;;;;;14.43;7.77;;;;;;;;;;5029203;28;20220;-79
2022/11/27 06:36:02;;;;;;;13.50;7.57;;;;;;;;;;5032830;28;20188;-79
2022/11/27 06:38:28;;;;;;;13.20;7.83;;;;;;;;;;5015254;28;20176;-79
2022/11/27 06:40:54;;;;;;;15.17;8.37;;;;;;;;;;4998825;28;20199;-79
2022/11/27 06:43:20;;;;;;;14.40;8.07;;;;;;;;;;5014847;28;20207;-80
2022/11/27 06:45:54;;;;;;;14.03;7.70;;;;;;;;;;5023374;28;20184;-80
2022/11/27 06:48:20;;;;;;;10.90;7.63;;;;;;;;;;5008448;28;20216;-80
2022/11/27 06:50:46;;;;;;;13.77;8.07;;;;;;;;;;5015006;28;20204;-80
2022/11/27 06:53:12;;;;;;;12.70;7.63;;;;;;;;;;5022440;28;20216;-80
2022/11/27 06:55:38;;;;;;;13.07;7.87;;;;;;;;;;4996670;28;20242;-80
2022/11/27 06:58:04;;;;;;;17.40;8.53;;;;;;;;;;5032442;28;20184;-80
2022/11/27 07:00:30;;;;;;;14.77;8.77;;;;;;;;;;5018536;28;20189;-80
2022/11/27 07:02:56;;;;;;;13.10;7.83;;;;;;;;;;5032220;28;20239;-80
2022/11/27 07:05:23;;;;;;;13.27;7.93;;;;;;;;;;4998510;28;20283;-80
2022/11/27 07:07:49;;;;;;;15.97;8.80;;;;;;;;;;5014885;28;20212;-80
2022/11/27 07:10:15;;;;;;;17.40;8.13;;;;;;;;;;4991589;28;20195;-80
2022/11/27 07:12:41;;;;;;;16.73;9.50;;;;;;;;;;5031955;28;20247;-80
2022/11/27 07:15:08;;;;;;;14.70;8.10;;;;;;;;;;5014669;28;20185;-80
2022/11/27 07:17:34;;;;;;;15.70;9.20;;;;;;;;;;5014174;28;20263;-80
2022/11/27 07:20:00;;;;;;;15.47;8.30;;;;;;;;;;5038900;28;20237;-80
2022/11/27 07:22:26;;;;;;;15.57;8.60;;;;;;;;;;5014465;28;20219;-81
2022/11/27 07:24:52;;;;;;;18.00;9.13;;;;;;;;;;5013744;28;20188;-79
2022/11/27 07:27:18;;;;;;;16.07;9.53;;;;;;;;;;4997934;28;20188;-79
2022/11/27 07:29:44;;;;;;;17.90;9.60;;;;;;;;;;5034713;28;20180;-79
2022/11/27 07:32:10;;;;;;;16.20;9.73;;;;;;;;;;5018058;28;20196;-79
2022/11/27 07:34:36;;;;;;;16.43;10.40;;;;;;;;;;5017369;28;20208;-79
2022/11/27 07:37:02;;;;;;;17.10;10.37;;;;;;;;;;5018011;28;20177;-79
2022/11/27 07:39:28;;;;;;;17.20;10.63;;;;;;;;;;5017033;28;20188;-81
2022/11/27 07:41:54;;;;;;;16.10;9.77;;;;;;;;;;4988381;28;20189;-80
2022/11/27 07:44:20;;;;;;;15.80;10.83;;;;;;;;;;4983253;28;20189;-80
2022/11/27 07:46:46;;;;;;;16.03;10.53;;;;;;;;;;4999379;28;20189;-80
2022/11/27 07:49:12;;;;;;;18.97;10.13;;;;;;;;;;5016438;28;20177;-80
2022/11/27 07:51:38;;;;;;;19.13;10.10;;;;;;;;;;4999567;28;20236;-80
2022/11/27 07:54:04;;;;;;;19.47;10.50;;;;;;;;;;4989072;28;20219;-80
2022/11/27 07:56:30;;;;;;;18.47;10.93;;;;;;;;;;5035835;28;20173;-80
2022/11/27 07:58:57;;;;;;;17.87;11.27;;;;;;;;;;5033640;28;20176;-79
2022/11/27 08:01:23;;;;;;;18.57;11.37;;;;;;;;;;5017965;22;20193;-79
2022/11/27 08:03:49;;;;;;;23.03;11.70;;;;;;;;;;5032843;28;20201;-79
2022/11/27 08:06:20;;;;;;;20.77;11.00;;;;;;;;;;5024426;28;20231;-79
2022/11/27 08:08:46;;;;;;;19.33;10.97;;;;;;;;;;5024505;28;20185;-79
2022/11/27 08:11:21;;;;;;;22.37;12.80;;;;;;;;;;5019623;28;20203;-79
2022/11/27 08:13:48;;;;;;;21.97;13.17;;;;;;;;;;5023069;28;20256;-80
2022/11/27 08:16:14;;;;;;;20.87;12.77;;;;;;;;;;5009309;28;20211;-80
2022/11/27 08:18:40;;;;;;;22.90;12.70;;;;;;;;;;5024548;28;20173;-80
2022/11/27 08:21:06;;;;;;;23.73;13.07;;;;;;;;;;5025650;28;20253;-80
2022/11/27 08:23:32;;;;;;;21.57;13.27;;;;;;;;;;5009663;28;20248;-80
2022/11/27 08:25:58;;;;;;;23.60;13.37;;;;;;;;;;5024609;28;20182;-81
2022/11/27 08:28:24;;;;;;;22.63;13.50;;;;;;;;;;5023085;28;20212;-80
2022/11/27 08:31:00;;;;;;;28.97;14.20;;;;;;;;;;5032589;28;20193;-80
2022/11/27 08:33:26;;;;;;;22.33;14.63;;;;;;;;;;5034735;28;20215;-79
2022/11/27 08:35:53;;;;;;;22.90;13.57;;;;;;;;;;5001727;28;20188;-79
2022/11/27 08:38:19;;;;;;;24.30;14.40;;;;;;;;;;5017832;28;20180;-80
2022/11/27 08:40:45;;;;;;;26.53;14.27;;;;;;;;;;5015870;28;20204;-79
2022/11/27 08:43:11;;;;;;;23.17;13.20;;;;;;;;;;5005652;28;20189;-79
2022/11/27 08:45:37;;;;;;;26.80;14.50;;;;;;;;;;4999751;28;20197;-79
2022/11/27 08:48:04;;;;;;;24.43;14.67;;;;;;;;;;5016760;28;20192;-80
2022/11/27 08:50:30;;;;;;;26.00;14.03;;;;;;;;;;5001377;28;20275;-80
2022/11/27 08:52:56;;;;;;;22.80;14.10;;;;;;;;;;5001112;28;20295;-80
2022/11/27 08:55:22;;;;;;;25.90;14.23;;;;;;;;;;5000291;28;20188;-80
2022/11/27 08:57:48;;;;;;;21.93;13.23;;;;;;;;;;5013795;28;20177;-80
2022/11/27 09:00:14;;;;;;;23.67;13.90;;;;;;;;;;4981343;28;20185;-80
2022/11/27 09:02:40;;;;;;;22.63;14.10;;;;;;;;;;4978308;28;20230;-80
2022/11/27 09:05:06;;;;;;;22.13;14.10;;;;;;;;;;4993162;28;20240;-80
2022/11/27 09:07:32;;;;;;;23.30;13.77;;;;;;;;;;4993094;28;20185;-79
2022/11/27 09:09:58;;;;;;;21.50;13.83;;;;;;;;;;4978608;28;20189;-79
2022/11/27 09:12:25;;;;;;;21.70;13.40;;;;;;;;;;4977995;28;20276;-79
2022/11/27 09:14:51;;;;;;;22.27;13.47;;;;;;;;;;4993833;28;20248;-79
2022/11/27 09:17:17;;;;;;;25.70;13.90;;;;;;;;;;4994443;28;20178;-79
2022/11/27 09:19:43;;;;;;;24.43;14.53;;;;;;;;;;4978461;28;20189;-79
2022/11/27 09:22:09;;;;;;;22.93;14.97;;;;;;;;;;4994471;28;20193;-79
2022/11/27 09:24:35;;;;;;;25.20;15.93;;;;;;;;;;4978913;28;20178;-79
2022/11/27 09:27:01;;;;;;;26.67;15.33;;;;;;;;;;4994375;28;20305;-79
2022/11/27 09:29:28;;;;;;;22.50;15.47;;;;;;;;;;4995203;28;20279;-79
2022/11/27 09:31:54;;;;;;;25.43;14.87;;;;;;;;;;4976230;28;20253;-79
2022/11/27 09:34:20;;;;;;;24.20;14.57;;;;;;;;;;4977874;28;20251;-79
2022/11/27 09:36:46;;;;;;;22.13;14.03;;;;;;;;;;4994081;28;20206;-79
2022/11/27 09:39:13;;;;;;;28.37;14.23;;;;;;;;;;4994107;28;20297;-79
2022/11/27 09:41:39;;;;;;;21.90;13.57;;;;;;;;;;4992073;28;20220;-79
2022/11/27 09:44:23;;;;;;;21.97;14.77;;;;;;;;;;4994930;28;20170;-79
2022/11/27 09:46:49;;;;;;;26.37;15.07;;;;;;;;;;4994944;28;20186;-80
2022/11/27 09:49:27;;;;;;;23.83;13.47;;;;;;;;;;4977928;28;20190;-81
2022/11/27 09:51:56;;;;;;;19.23;13.77;;;;;;;;;;4993032;28;20220;-81
2022/11/27 09:54:42;;;;;;;22.73;15.17;;;;;;;;;;4993264;28;20215;-80
2022/11/27 09:57:15;;;;;;;21.67;14.67;;;;;;;;;;4994722;28;20178;-80
2022/11/27 09:59:45;;;;;;;25.00;15.43;;;;;;;;;;4993620;28;20258;-80
2022/11/27 10:02:18;;;;;;;24.53;14.67;;;;;;;;;;5007471;28;20220;-80
2022/11/27 10:04:44;;;;;;;24.03;15.20;;;;;;;;;;5033935;28;20187;-80
2022/11/27 10:07:10;;;;;;;22.60;15.67;;;;;;;;;;5017058;28;20173;-80
2022/11/27 10:09:39;;;;;;;22.27;15.27;;;;;;;;;;5016839;28;20215;-80
2022/11/27 10:12:24;;;;;;;24.33;15.23;;;;;;;;;;5016560;28;20176;-80
2022/11/27 10:15:06;;;;;;;24.40;14.97;;;;;;;;;;5016201;28;20266;-80
2022/11/27 10:17:51;;;;;;;25.77;15.10;;;;;;;;;;5016110;28;20179;-80
2022/11/27 10:20:35;;;;;;;21.73;14.23;;;;;;;;;;5016200;28;20267;-80
2022/11/27 10:23:13;;;;;;;21.77;13.80;;;;;;;;;;5016320;28;20188;-80
2022/11/27 10:25:51;;;;;;;21.20;14.07;;;;;;;;;;5033600;28;20183;-79
2022/11/27 10:28:36;;;;;;;21.30;12.80;;;;;;;;;;5030308;28;20185;-79
2022/11/27 10:31:04;;;;;;;21.10;12.83;;;;;;;;;;5013519;28;20195;-79
2022/11/27 10:33:39;;;;;;;19.03;12.67;;;;;;;;;;5016279;28;20311;-79
2022/11/27 10:36:10;;;;;;;20.27;11.83;;;;;;;;;;5015748;28;20263;-79
2022/11/27 10:38:38;;;;;;;19.97;11.53;;;;;;;;;;5016181;28;20218;-79
2022/11/27 10:41:11;;;;;;;19.03;11.60;;;;;;;;;;5021702;28;20228;-79
2022/11/27 10:43:37;;;;;;;19.17;11.30;;;;;;;;;;5033061;28;20177;-79
2022/11/27 10:46:12;;;;;;;17.70;11.60;;;;;;;;;;5014693;28;20276;-81
2022/11/27 10:48:38;;;;;;;17.40;11.03;;;;;;;;;;4997031;28;20181;-81
2022/11/27 10:51:14;;;;;;;16.93;11.43;;;;;;;;;;4989603;28;20180;-81
2022/11/27 10:53:41;;;;;;;15.27;10.53;;;;;;;;;;5016421;28;20216;-80
2022/11/27 10:56:07;;;;;;;17.63;11.17;;;;;;;;;;5015872;28;20188;-80
2022/11/27 10:58:40;;;;;;;14.60;10.30;;;;;;;;;;5016605;28;20212;-81
2022/11/27 11:01:10;;;;;;;19.03;11.10;;;;;;;;;;5015762;28;20177;-81
2022/11/27 11:03:36;;;;;;;19.97;11.87;;;;;;;;;;5036235;28;20220;-79
2022/11/27 11:06:22;;;;;;;20.13;12.40;;;;;;;;;;5016863;28;20252;-79
2022/11/27 11:09:00;;;;;;;18.07;12.07;;;;;;;;;;4999929;28;20201;-79
2022/11/27 11:11:26;;;;;;;25.30;13.97;;;;;;;;;;5017711;28;20252;-79
2022/11/27 11:13:54;;;;;;;18.13;12.17;;;;;;;;;;5000222;28;20263;-79
2022/11/27 11:16:29;;;;;;;20.97;12.87;;;;;;;;;;5017716;28;20184;-79
2022/11/27 11:18:55;;;;;;;19.10;12.53;;;;;;;;;;5017732;28;20195;-79
2022/11/27 11:21:32;;;;;;;19.97;12.43;;;;;;;;;;5000264;28;20173;-79
2022/11/27 11:24:06;;;;;;;16.30;11.30;;;;;;;;;;5000131;28;20192;-79
2022/11/27 11:26:52;;;;;;;18.80;11.47;;;;;;;;;;4999994;28;20181;-79
2022/11/27 11:29:21;;;;;;;18.97;11.70;;;;;;;;;;4999905;28;20178;-79
2022/11/27 11:31:47;;;;;;;19.10;11.90;;;;;;;;;;5017368;28;20181;-79
2022/11/27 11:34:20;;;;;;;26.63;18.77;;;;;;;;;;5001460;28;20220;-79
2022/11/27 11:36:54;;;;;;;25.47;17.10;;;;;;;;;;5018419;28;20192;-79
2022/11/27 11:39:23;;;;;;;18.60;12.63;;;;;;;;;;5018557;28;20184;-79
2022/11/27 11:41:49;;;;;;;20.80;15.73;;;;;;;;;;5036798;28;20212;-79
2022/11/27 11:44:22;;;;;;;20.73;13.87;;;;;;;;;;5003593;28;20181;-79
2022/11/27 11:46:52;;;;;;;19.57;12.87;;;;;;;;;;5019673;28;20189;-79
2022/11/27 11:49:22;;;;;;;19.40;12.43;;;;;;;;;;5019666;28;20177;-79
2022/11/27 11:51:58;;;;;;;17.73;12.40;;;;;;;;;;5020052;28;20181;-80
2022/11/27 11:54:32;;;;;;;18.43;13.67;;;;;;;;;;5036661;28;20219;-80
2022/11/27 11:57:01;;;;;;;18.53;13.57;;;;;;;;;;5024103;28;20181;-81
2022/11/27 11:59:35;;;;;;;18.33;12.17;;;;;;;;;;5016638;28;20169;-81
2022/11/27 12:02:20;;;;;;;16.40;12.10;;;;;;;;;;5016661;28;20299;-81
2022/11/27 12:05:05;;;;;;;27.70;13.50;;;;;;;;;;4999077;28;20192;-81
2022/11/27 12:07:39;;;;;;;22.33;15.10;;;;;;;;;;5016673;28;20169;-81
2022/11/27 12:10:21;;;;;;;23.20;18.47;;;;;;;;;;5016593;28;20192;-80
2022/11/27 12:13:05;;;;;;;15.90;12.80;;;;;;;;;;5017069;28;20181;-80
2022/11/27 12:15:38;;;;;;;18.00;12.57;;;;;;;;;;5030117;28;20212;-79
2022/11/27 12:18:13;;;;;;;19.63;12.20;;;;;;;;;;5018447;28;20183;-79
2022/11/27 12:20:51;;;;;;;16.50;12.73;;;;;;;;;;5018547;28;20180;-79
2022/11/27 12:23:38;;;;;;;16.20;12.40;;;;;;;;;;5018790;28;20188;-79
2022/11/27 12:26:07;;;;;;;17.70;11.43;;;;;;;;;;5037460;28;20287;-81
2022/11/27 12:28:39;;;;;;;18.30;11.20;;;;;;;;;;5037359;28;20204;-80
2022/11/27 12:31:14;;;;;;;15.80;11.40;;;;;;;;;;5036532;28;20196;-80
2022/11/27 12:33:47;;;;;;;12.37;10.00;;;;;;;;;;5018430;28;20219;-80
2022/11/27 12:36:15;;;;;;;17.27;10.90;;;;;;;;;;5036219;28;20196;-81
2022/11/27 12:38:41;;;;;;;15.43;12.55;;;;;;;;;;5035382;28;20405;-80
2022/11/27 12:41:32;;;;;;;14.50;10.73;;;;;;;;;;5018501;28;20272;-81
2022/11/27 12:44:01;;;;;;;15.73;10.27;;;;;;;;;;5035576;28;20176;-80
2022/11/27 12:46:30;;;;;;;15.48;12.30;;;;;;;;;;5001530;28;20413;-81
2022/11/27 12:48:59;;;;;;;14.95;12.10;;;;;;;;;;5017674;28;20410;-80
2022/11/27 12:51:27;;;;;;;15.73;10.43;;;;;;;;;;5017691;28;20211;-80
2022/11/27 12:54:04;;;;;;;15.83;10.30;;;;;;;;;;5035678;28;20251;-80
2022/11/27 12:56:47;;;;;;;13.97;9.67;;;;;;;;;;5017978;28;20187;-80
2022/11/27 12:59:16;;;;;;;12.87;9.60;;;;;;;;;;5017663;28;20204;-78
2022/11/27 13:01:47;;;;;;;13.77;9.17;;;;;;;;;;5035022;28;20208;-78
2022/11/27 13:04:18;;;;;;;13.40;9.40;;;;;;;;;;5016857;28;20231;-78
2022/11/27 13:07:11;;;;;;;13.47;9.70;;;;;;;;;;5016574;28;20188;-78
2022/11/27 13:09:55;;;;;;;12.93;11.60;;;;;;;;;;4994594;28;20189;-77
2022/11/27 13:12:31;;;;;;;14.33;9.77;;;;;;;;;;5021599;28;20311;-78
2022/11/27 13:15:00;;;;;;;17.47;11.60;;;;;;;;;;5017707;28;20307;-78
2022/11/27 13:17:32;;;;;;;15.13;10.67;;;;;;;;;;5017319;28;20180;-78
2022/11/27 13:19:58;;;;;;;13.50;9.67;;;;;;;;;;5017541;28;20267;-78
2022/11/27 13:22:28;;;;;;;10.67;8.33;;;;;;;;;;5000861;28;20180;-78
2022/11/27 13:24:55;;;;;;;14.17;8.20;;;;;;;;;;5017136;28;20263;-78
2022/11/27 13:27:24;;;;;;;10.07;7.63;;;;;;;;;;5017240;28;20204;-78
2022/11/27 13:29:54;;;;;;;10.67;7.73;;;;;;;;;;5017083;28;20183;-77
2022/11/27 13:32:28;;;;;;;12.70;8.70;;;;;;;;;;5016219;28;20189;-80
2022/11/27 13:34:57;;;;;;;12.90;8.40;;;;;;;;;;5017195;28;20287;-80
2022/11/27 13:37:31;;;;;;;16.50;9.43;;;;;;;;;;5016637;28;20212;-80
2022/11/27 13:40:06;;;;;;;14.80;10.63;;;;;;;;;;5034513;28;20255;-80
2022/11/27 13:42:34;;;;;;;15.47;10.80;;;;;;;;;;5034682;28;20176;-80
2022/11/27 13:45:09;;;;;;;16.60;12.23;;;;;;;;;;5016922;28;20181;-80
2022/11/27 13:47:38;;;;;;;14.63;10.53;;;;;;;;;;5012726;28;20200;-80
2022/11/27 13:50:11;;;;;;;25.03;15.37;;;;;;;;;;5027801;28;20195;-78
2022/11/27 13:52:37;;;;;;;17.47;11.93;;;;;;;;;;5016467;28;20254;-78
2022/11/27 13:55:08;;;;;;;16.80;11.27;;;;;;;;;;5016860;28;20187;-78
2022/11/27 13:57:37;;;;;;;15.10;10.67;;;;;;;;;;5034286;28;20204;-79
2022/11/27 14:00:11;;;;;;;15.67;12.07;;;;;;;;;;5000630;28;20184;-79
2022/11/27 14:02:44;;;;;;;18.70;11.80;;;;;;;;;;5010563;23;20237;-84
2022/11/27 14:05:12;;;;;;;17.47;11.67;;;;;;;;;;4994251;28;20178;-81
2022/11/27 14:07:40;;;;;;;17.50;10.70;;;;;;;;;;4991535;28;20181;-81
2022/11/27 14:10:18;;;;;;;13.83;10.37;;;;;;;;;;4993473;28;20257;-80
2022/11/27 14:12:51;;;;;;;14.20;9.77;;;;;;;;;;4992780;28;20205;-80
2022/11/27 14:15:17;;;;;;;16.93;12.50;;;;;;;;;;4992747;28;20186;-80
2022/11/27 14:17:45;;;;;;;14.30;10.47;;;;;;;;;;4992999;28;20182;-80
2022/11/27 14:20:17;;;;;;;21.13;11.73;;;;;;;;;;4993602;28;20185;-80
2022/11/27 14:22:43;;;;;;;20.20;10.97;;;;;;;;;;4992837;28;20182;-79
2022/11/27 14:25:35;;;;;;;13.67;10.30;;;;;;;;;;4993137;28;20187;-79
2022/11/27 14:28:21;;;;;;;15.77;10.57;;;;;;;;;;4992760;28;20196;-79
2022/11/27 14:31:05;;;;;;;14.77;10.70;;;;;;;;;;4993506;28;20201;-79
2022/11/27 14:33:33;;;;;;;15.27;9.80;;;;;;;;;;4993604;28;20214;-79
2022/11/27 14:36:04;;;;;;;14.67;10.23;;;;;;;;;;4992435;28;20192;-79